Time;durP1;ratioP1;P1;durP2;ratioP2;P2;SDS_P1;SDS_P2;PMS_P1;PMS_P2;Temp;Humidity;BMP_temperature;BMP_pressure;BME280_temperature;BME280_humidity;BME280_pressure;Samples;Min_cycle;Max_cycle;Signal;HPM_P1;HPM_P2
2022/04/05 00:00:32;;;;;;;11.93;7.13;;;;;;;8.01;55.03;94766.69;4989969;28;20043;-77
2022/04/05 00:02:58;;;;;;;15.38;8.90;;;;;;;7.98;54.48;94767.13;4987859;28;20030;-77
2022/04/05 00:05:23;;;;;;;18.88;10.15;;;;;;;7.99;53.83;94776.47;4989852;28;20035;-77
2022/04/05 00:07:48;;;;;;;25.33;11.48;;;;;;;7.98;54.05;94767.13;4988645;28;20037;-76
2022/04/05 00:10:14;;;;;;;16.63;9.40;;;;;;;7.97;54.07;94762.91;4987908;28;20041;-76
2022/04/05 00:12:40;;;;;;;13.95;9.07;;;;;;;7.98;54.25;94756.75;4972394;28;20038;-76
2022/04/05 00:15:09;;;;;;;11.07;6.55;;;;;;;8.01;54.01;94766.69;4967613;28;20030;-76
2022/04/05 00:17:34;;;;;;;9.30;7.13;;;;;;;8.01;53.87;94771.84;4968566;28;20037;-76
2022/04/05 00:20:00;;;;;;;16.65;7.57;;;;;;;7.99;54.19;94768.69;4991999;28;20118;-76
2022/04/05 00:22:25;;;;;;;17.50;8.48;;;;;;;7.94;53.71;94766.72;4992962;28;20591;-76
2022/04/05 00:24:51;;;;;;;6.50;5.68;;;;;;;7.95;54.14;94762.34;4975367;28;20142;-76
2022/04/05 00:27:17;;;;;;;17.77;6.80;;;;;;;7.92;54.99;94762.78;4975658;28;20073;-76
2022/04/05 00:29:45;;;;;;;16.30;8.43;;;;;;;7.89;55.35;94760.63;4992125;28;20096;-76
2022/04/05 00:32:12;;;;;;;27.30;15.43;;;;;;;7.81;55.38;94759.94;5003631;28;20129;-75
2022/04/05 00:34:37;;;;;;;46.40;21.10;;;;;;;7.79;54.86;94763.72;4975644;28;20113;-76
2022/04/05 00:37:03;;;;;;;13.57;8.48;;;;;;;7.78;55.30;94759.53;4975718;28;20434;-76
2022/04/05 00:39:29;;;;;;;9.10;6.05;;;;;;;7.74;55.23;94751.41;4991926;28;20471;-76
2022/04/05 00:41:54;;;;;;;22.20;9.07;;;;;;;7.65;55.04;94751.94;4992379;28;20037;-76
2022/04/05 00:44:20;;;;;;;15.70;8.48;;;;;;;7.58;55.11;94746.81;4991746;28;20034;-76
2022/04/05 00:46:45;;;;;;;12.68;7.78;;;;;;;7.42;55.32;94742.19;4993044;28;20442;-76
2022/04/05 00:49:15;;;;;;;18.80;9.10;;;;;;;7.41;55.67;94751.75;4976883;28;20046;-76
2022/04/05 00:51:40;;;;;;;23.10;9.80;;;;;;;7.27;56.02;94750.28;4991991;28;20048;-76
2022/04/05 00:54:06;;;;;;;13.45;7.68;;;;;;;7.14;56.01;94746.00;4991291;28;20038;-76
2022/04/05 00:56:35;;;;;;;10.77;7.15;;;;;;;7.00;56.37;94739.38;4991774;28;20026;-76
2022/04/05 00:59:20;;;;;;;10.82;6.45;;;;;;;6.95;56.28;94741.78;4976038;28;20084;-77
2022/04/05 01:01:45;;;;;;;11.23;6.03;;;;;;;6.84;56.46;94734.72;4991400;28;20042;-76
2022/04/05 01:04:11;;;;;;;7.03;6.32;;;;;;;6.84;56.83;94734.72;4991229;28;20117;-76
2022/04/05 01:06:43;;;;;;;9.82;6.38;;;;;;;6.89;56.45;94737.47;4992710;28;20114;-76
2022/04/05 01:09:09;;;;;;;11.68;7.65;;;;;;;6.85;56.41;94731.94;4991082;28;20037;-76
2022/04/05 01:11:34;;;;;;;7.40;6.18;;;;;;;6.89;56.13;94732.28;4973468;28;20030;-76
2022/04/05 01:14:05;;;;;;;9.00;6.35;;;;;;;6.81;56.45;94735.91;4991111;28;20061;-76
2022/04/05 01:16:31;;;;;;;9.38;6.32;;;;;;;6.78;56.79;94730.38;4991669;28;20030;-76
2022/04/05 01:18:56;;;;;;;6.80;6.10;;;;;;;6.76;56.58;94730.59;4974870;28;20535;-76
2022/04/05 01:21:22;;;;;;;12.00;6.47;;;;;;;6.76;56.90;94733.19;4974932;28;20046;-77
2022/04/05 01:24:09;;;;;;;8.00;7.03;;;;;;;6.74;57.18;94735.19;4990810;28;20049;-76
2022/04/05 01:26:51;;;;;;;5.93;5.40;;;;;;;6.73;57.00;94731.03;4990880;28;20492;-76
2022/04/05 01:29:18;;;;;;;10.85;6.40;;;;;;;6.76;57.09;94727.22;4974176;28;20486;-76
2022/04/05 01:31:48;;;;;;;9.77;7.10;;;;;;;6.78;57.45;94730.38;4991103;28;20077;-76
2022/04/05 01:34:14;;;;;;;12.48;7.57;;;;;;;6.81;56.61;94732.53;4989966;28;20052;-76
2022/04/05 01:36:44;;;;;;;12.02;8.65;;;;;;;6.75;57.24;94730.81;4998648;28;20059;-76
2022/04/05 01:39:15;;;;;;;17.23;8.80;;;;;;;6.77;57.62;94733.97;4989855;28;20045;-76
2022/04/05 01:41:40;;;;;;;14.05;9.43;;;;;;;6.78;57.66;94733.75;4990788;28;20153;-77
2022/04/05 01:44:06;;;;;;;23.55;9.07;;;;;;;6.78;57.67;94735.56;4990558;28;20038;-76
2022/04/05 01:46:34;;;;;;;20.27;9.15;;;;;;;6.83;57.37;94728.78;4991851;28;20108;-76
2022/04/05 01:48:59;;;;;;;18.17;9.82;;;;;;;6.75;57.94;94731.59;4973966;28;20053;-76
2022/04/05 01:51:25;;;;;;;14.07;8.10;;;;;;;6.61;58.44;94725.72;4991644;28;20863;-76
2022/04/05 01:53:50;;;;;;;8.32;7.20;;;;;;;6.49;59.37;94727.38;4992150;28;20022;-77
2022/04/05 01:56:16;;;;;;;14.50;8.60;;;;;;;6.50;58.86;94723.81;4993272;28;20034;-76
2022/04/05 01:58:41;;;;;;;13.13;8.63;;;;;;;6.49;58.99;94727.38;4992522;28;20034;-77
2022/04/05 02:01:06;;;;;;;13.38;9.32;;;;;;;6.50;59.21;94726.38;4992643;28;20031;-76
2022/04/05 02:03:32;;;;;;;17.00;11.18;;;;;;;6.51;59.75;94722.81;4990639;28;20108;-76
2022/04/05 02:05:58;;;;;;;21.95;12.13;;;;;;;6.49;60.10;94722.22;4990760;28;20030;-76
2022/04/05 02:08:24;;;;;;;17.20;12.38;;;;;;;6.54;59.33;94725.00;4990409;28;20034;-77
2022/04/05 02:10:49;;;;;;;28.25;12.10;;;;;;;6.58;59.23;94720.19;4991356;28;20034;-77
2022/04/05 02:13:15;;;;;;;21.65;13.07;;;;;;;6.62;59.47;94714.38;4990589;28;20045;-77
2022/04/05 02:15:41;;;;;;;28.42;14.95;;;;;;;6.58;59.07;94715.03;4976726;28;20027;-76
2022/04/05 02:18:06;;;;;;;24.95;14.05;;;;;;;6.61;58.88;94710.22;4991796;28;20073;-76
2022/04/05 02:20:32;;;;;;;26.05;14.60;;;;;;;6.63;59.10;94703.03;4990652;28;20035;-77
2022/04/05 02:22:58;;;;;;;27.55;15.10;;;;;;;6.65;58.98;94707.22;4989960;28;20656;-77
2022/04/05 02:25:24;;;;;;;24.25;14.18;;;;;;;6.58;59.00;94708.06;4973381;28;20038;-76
2022/04/05 02:27:49;;;;;;;33.40;14.40;;;;;;;6.54;58.66;94696.56;4990134;28;20462;-76
2022/04/05 02:30:14;;;;;;;24.13;15.85;;;;;;;6.51;58.96;94703.97;4988864;28;20072;-76
2022/04/05 02:32:40;;;;;;;34.50;22.77;;;;;;;6.51;58.99;94698.78;4973330;28;20034;-76
2022/04/05 02:35:08;;;;;;;53.95;31.38;;;;;;;6.43;58.73;94689.47;4989826;28;20038;-76
2022/04/05 02:37:33;;;;;;;66.35;42.83;;;;;;;6.45;58.75;94690.06;4988275;28;20037;-76
2022/04/05 02:39:59;;;;;;;55.53;37.78;;;;;;;6.45;58.81;94687.47;4989098;28;20429;-76
2022/04/05 02:42:24;;;;;;;57.15;36.60;;;;;;;6.42;58.88;94687.09;4973462;28;20046;-77
2022/04/05 02:44:50;;;;;;;73.72;37.83;;;;;;;6.35;59.54;94683.78;4990748;28;20037;-76
2022/04/05 02:47:15;;;;;;;56.15;28.88;;;;;;;6.31;59.16;94683.41;4973589;28;20406;-76
2022/04/05 02:49:41;;;;;;;35.67;21.92;;;;;;;6.31;59.23;94683.41;4973573;28;20042;-76
2022/04/05 02:52:06;;;;;;;22.25;13.18;;;;;;;6.38;59.16;94679.00;4989407;28;20461;-76
2022/04/05 02:54:32;;;;;;;25.17;12.65;;;;;;;6.40;59.81;94676.19;4989301;28;20038;-76
2022/04/05 02:56:57;;;;;;;21.20;10.63;;;;;;;6.42;59.05;94680.16;4989531;28;20034;-77
2022/04/05 02:59:23;;;;;;;26.73;13.13;;;;;;;6.43;59.74;94673.19;4989236;28;20045;-77
2022/04/05 03:01:49;;;;;;;21.52;11.63;;;;;;;6.49;59.06;94677.50;4972516;28;20034;-76
2022/04/05 03:04:15;;;;;;;42.25;25.30;;;;;;;6.44;59.04;94693.66;4973158;28;20031;-76
2022/04/05 03:06:41;;;;;;;45.45;24.25;;;;;;;6.24;58.82;94682.66;4989323;28;20045;-76
2022/04/05 03:09:06;;;;;;;43.40;21.73;;;;;;;6.21;59.18;94688.25;4980805;28;20029;-76
2022/04/05 03:11:31;;;;;;;25.45;15.48;;;;;;;6.18;60.10;94680.88;4989305;28;20487;-76
2022/04/05 03:13:57;;;;;;;30.40;14.23;;;;;;;6.13;59.78;94680.72;4980860;28;20371;-76
2022/04/05 03:16:24;;;;;;;25.35;15.57;;;;;;;6.12;59.87;94679.13;4988949;28;20469;-76
2022/04/05 03:18:50;;;;;;;25.30;10.52;;;;;;;6.10;58.96;94674.19;4971985;28;20026;-76
2022/04/05 03:21:15;;;;;;;20.70;10.80;;;;;;;6.06;58.54;94674.81;4989485;28;20053;-76
2022/04/05 03:23:41;;;;;;;16.25;9.77;;;;;;;5.90;58.86;94681.25;4995452;28;20101;-76
2022/04/05 03:26:06;;;;;;;16.27;9.43;;;;;;;5.82;59.37;94674.47;4992367;28;20045;-76
2022/04/05 03:28:32;;;;;;;20.10;9.00;;;;;;;5.77;59.18;94671.75;4990067;28;20042;-76
2022/04/05 03:30:57;;;;;;;17.40;9.82;;;;;;;5.69;59.21;94675.34;4986795;28;20053;-76
2022/04/05 03:33:22;;;;;;;16.35;9.95;;;;;;;5.62;59.75;94678.94;4989169;28;20034;-75
2022/04/05 03:35:48;;;;;;;16.50;9.45;;;;;;;5.53;60.34;94675.81;4989879;28;20478;-76
2022/04/05 03:38:13;;;;;;;14.60;9.00;;;;;;;5.45;60.92;94680.38;4973266;28;20042;-76
2022/04/05 03:40:39;;;;;;;19.13;11.80;;;;;;;5.41;60.41;94670.47;4990547;28;20038;-76
2022/04/05 03:43:07;;;;;;;32.20;14.20;;;;;;;5.35;60.65;94673.84;4973196;28;20034;-76
2022/04/05 03:45:32;;;;;;;18.95;12.77;;;;;;;5.37;61.01;94671.09;4989405;28;20041;-76
2022/04/05 03:47:58;;;;;;;19.00;12.30;;;;;;;5.42;60.42;94674.63;4988780;28;20026;-77
2022/04/05 03:50:23;;;;;;;25.00;11.45;;;;;;;5.45;60.97;94672.66;4980421;28;20478;-76
2022/04/05 03:52:49;;;;;;;27.30;14.20;;;;;;;5.33;60.94;94668.09;4988346;28;20553;-76
2022/04/05 03:55:14;;;;;;;33.85;13.15;;;;;;;5.30;61.31;94671.09;4989797;28;20042;-76
2022/04/05 03:57:40;;;;;;;23.73;12.57;;;;;;;5.34;61.39;94667.13;4973271;28;20037;-76
2022/04/05 04:00:07;;;;;;;31.25;13.27;;;;;;;5.36;60.59;94664.31;4989580;28;20045;-76
2022/04/05 04:02:35;;;;;;;24.70;13.85;;;;;;;5.39;61.19;94666.53;4989392;28;20053;-76
2022/04/05 04:05:00;;;;;;;24.65;15.30;;;;;;;5.47;60.38;94660.34;4988183;28;20030;-75
2022/04/05 04:07:26;;;;;;;35.10;19.58;;;;;;;5.45;60.76;94663.13;4980292;28;20069;-76
2022/04/05 04:09:51;;;;;;;29.20;18.10;;;;;;;5.42;61.05;94668.69;4988656;28;20034;-75
2022/04/05 04:12:17;;;;;;;44.60;20.42;;;;;;;5.49;60.64;94673.81;4972661;28;20038;-76
2022/04/05 04:14:42;;;;;;;98.13;43.65;;;;;;;5.55;60.31;94673.03;4988394;28;20465;-75
2022/04/05 04:17:08;;;;;;;81.82;40.65;;;;;;;5.53;60.28;94680.16;4989868;28;20061;-76
2022/04/05 04:19:34;;;;;;;85.85;39.17;;;;;;;5.53;60.11;94675.81;4988469;28;20050;-76
2022/04/05 04:22:00;;;;;;;116.00;47.50;;;;;;;5.54;60.98;94685.13;4988407;28;20041;-76
2022/04/05 04:24:25;;;;;;;161.35;74.00;;;;;;;5.59;59.55;94681.94;4987570;28;20096;-75
2022/04/05 04:26:50;;;;;;;121.40;52.80;;;;;;;5.59;60.25;94692.25;4989073;28;20030;-77
2022/04/05 04:29:16;;;;;;;92.82;45.22;;;;;;;5.62;59.64;94699.56;4989578;28;20034;-77
2022/04/05 04:31:41;;;;;;;97.13;42.55;;;;;;;5.67;59.59;94692.81;4988323;28;20030;-76
2022/04/05 04:34:07;;;;;;;41.33;21.77;;;;;;;5.61;59.42;94698.00;4989791;28;20537;-76
2022/04/05 04:36:32;;;;;;;38.75;16.02;;;;;;;5.62;59.86;94690.03;4987343;28;20037;-76
2022/04/05 04:38:58;;;;;;;24.58;13.45;;;;;;;5.65;59.24;94689.63;4988330;28;20375;-77
2022/04/05 04:41:23;;;;;;;28.05;13.73;;;;;;;5.72;58.82;94692.22;4972162;28;20462;-76
2022/04/05 04:43:49;;;;;;;35.45;13.82;;;;;;;5.78;58.80;94693.16;4988004;28;20097;-77
2022/04/05 04:46:15;;;;;;;18.38;12.43;;;;;;;5.91;58.07;94698.31;4988723;28;20026;-76
2022/04/05 04:48:40;;;;;;;40.22;12.90;;;;;;;5.94;58.89;94698.69;4996730;28;20038;-76
2022/04/05 04:51:06;;;;;;;27.98;13.48;;;;;;;6.04;57.79;94687.94;4999219;28;20034;-76
2022/04/05 04:53:31;;;;;;;32.10;13.27;;;;;;;6.11;58.01;94693.84;4972180;28;20611;-76
2022/04/05 04:55:57;;;;;;;34.30;14.00;;;;;;;6.24;57.87;94700.72;4956244;28;20093;-77
2022/04/05 04:58:22;;;;;;;30.55;13.88;;;;;;;6.31;56.66;94698.88;4972715;28;20527;-77
2022/04/05 05:00:48;;;;;;;23.52;13.45;;;;;;;6.38;56.66;94694.50;4974209;28;20473;-77
2022/04/05 05:03:18;;;;;;;36.50;14.65;;;;;;;6.44;56.25;94693.66;4992239;28;20041;-77
2022/04/05 05:05:43;;;;;;;39.75;19.30;;;;;;;6.51;56.72;94691.03;4978529;28;20032;-77
2022/04/05 05:08:09;;;;;;;41.35;17.17;;;;;;;6.63;56.36;94687.53;4977097;28;20034;-77
2022/04/05 05:10:34;;;;;;;49.58;20.25;;;;;;;6.79;55.92;94694.00;4992141;28;20030;-77
2022/04/05 05:13:00;;;;;;;52.33;21.92;;;;;;;6.82;55.74;94695.34;4976349;28;20038;-77
2022/04/05 05:15:25;;;;;;;59.60;25.88;;;;;;;6.92;56.06;94691.31;4991189;28;20121;-77
2022/04/05 05:17:51;;;;;;;51.25;25.23;;;;;;;7.10;55.24;94693.13;4974735;28;20494;-77
2022/04/05 05:20:17;;;;;;;63.95;33.50;;;;;;;7.25;54.91;94692.00;4989247;28;20057;-77
2022/04/05 05:22:42;;;;;;;85.03;38.65;;;;;;;7.60;54.33;94694.84;4974894;28;20462;-77
2022/04/05 05:25:09;;;;;;;98.32;42.58;;;;;;;8.13;52.86;94698.41;4974838;28;20031;-77
2022/04/05 05:27:34;;;;;;;107.60;46.22;;;;;;;9.00;50.44;94698.75;4990776;28;20026;-77
2022/04/05 05:30:00;;;;;;;147.27;66.47;;;;;;;10.59;46.39;94703.56;4992666;28;20038;-77
2022/04/05 05:32:26;;;;;;;54.13;22.92;;;;;;;12.09;42.22;94698.44;4993409;28;20041;-77
2022/04/05 05:34:51;;;;;;;47.22;22.42;;;;;;;13.30;39.81;94703.19;4992629;28;20113;-77
2022/04/05 05:37:16;;;;;;;61.78;24.77;;;;;;;14.55;37.16;94704.06;4993405;28;20030;-77
2022/04/05 05:39:42;;;;;;;30.65;17.00;;;;;;;15.65;34.62;94692.31;4977311;28;20030;-77
2022/04/05 05:42:08;;;;;;;34.75;18.30;;;;;;;16.78;33.60;94700.22;4996547;28;20510;-77
2022/04/05 05:44:33;;;;;;;29.50;15.18;;;;;;;17.77;31.44;94696.53;4996061;28;20525;-77
2022/04/05 05:46:59;;;;;;;24.42;11.25;;;;;;;18.42;30.30;94692.34;4977387;28;20026;-77
2022/04/05 05:49:24;;;;;;;20.52;11.55;;;;;;;18.61;29.40;94694.97;4961969;28;20064;-77
2022/04/05 05:51:50;;;;;;;20.52;12.27;;;;;;;19.27;29.14;94696.66;4981084;28;20046;-77
2022/04/05 05:54:16;;;;;;;27.02;11.57;;;;;;;19.49;27.95;94693.38;4996238;28;20042;-77
2022/04/05 05:56:42;;;;;;;25.55;10.43;;;;;;;19.73;28.34;94694.03;5007271;28;20034;-78
2022/04/05 05:59:07;;;;;;;28.48;11.60;;;;;;;20.12;27.48;94684.84;5000960;28;20045;-78
2022/04/05 06:01:33;;;;;;;30.42;11.35;;;;;;;20.14;27.13;94680.06;4999440;28;20113;-77
2022/04/05 06:03:58;;;;;;;32.35;11.88;;;;;;;20.25;27.03;94681.44;4988698;28;20029;-77
2022/04/05 06:06:24;;;;;;;31.88;11.25;;;;;;;20.23;26.96;94683.59;4991680;28;20080;-77
2022/04/05 06:08:49;;;;;;;27.55;11.13;;;;;;;20.13;26.75;94675.09;4990424;28;20029;-78
2022/04/05 06:11:14;;;;;;;26.13;10.70;;;;;;;19.94;26.77;94685.75;4978427;28;20026;-77
2022/04/05 06:13:40;;;;;;;29.23;12.52;;;;;;;19.69;27.14;94682.53;4985039;28;20434;-77
2022/04/05 06:16:08;;;;;;;18.85;10.88;;;;;;;19.42;27.77;94687.72;4988675;28;20026;-76
2022/04/05 06:18:34;;;;;;;26.75;11.30;;;;;;;19.36;27.93;94684.38;4973502;28;20030;-76
2022/04/05 06:21:00;;;;;;;32.35;12.85;;;;;;;19.48;27.89;94683.91;4988391;28;20022;-77
2022/04/05 06:23:25;;;;;;;23.15;12.23;;;;;;;19.48;27.58;94684.69;4973104;28;21096;-76
2022/04/05 06:25:51;;;;;;;35.08;12.52;;;;;;;19.58;27.57;94675.06;4974826;28;20031;-77
2022/04/05 06:28:18;;;;;;;28.48;12.43;;;;;;;19.69;27.33;94682.53;4989696;28;20049;-76
2022/04/05 06:30:44;;;;;;;33.35;12.32;;;;;;;19.75;27.70;94683.97;4998574;28;20030;-78
2022/04/05 06:33:11;;;;;;;30.85;11.85;;;;;;;19.67;27.30;94683.88;4978959;28;20037;-78
2022/04/05 06:35:37;;;;;;;24.50;11.23;;;;;;;19.67;27.33;94681.22;4996028;28;20525;-77
2022/04/05 06:38:02;;;;;;;29.65;10.98;;;;;;;19.48;27.13;94676.00;4997533;28;20030;-76
2022/04/05 06:40:28;;;;;;;20.58;10.80;;;;;;;19.04;28.32;94674.63;4991972;28;20022;-78
2022/04/05 06:42:53;;;;;;;30.70;11.32;;;;;;;18.93;28.25;94675.06;4973776;28;20465;-76
2022/04/05 06:45:19;;;;;;;29.90;11.55;;;;;;;18.82;28.51;94675.22;4990685;28;20030;-76
2022/04/05 06:47:45;;;;;;;26.95;11.40;;;;;;;18.67;28.55;94672.78;4991016;28;20410;-76
2022/04/05 06:50:10;;;;;;;28.52;11.85;;;;;;;18.58;28.83;94670.00;4970839;28;20084;-76
2022/04/05 06:52:38;;;;;;;24.90;11.63;;;;;;;18.51;29.02;94674.03;4989117;28;20026;-76
2022/04/05 06:55:04;;;;;;;29.15;11.13;;;;;;;18.38;29.04;94670.25;4988341;28;20149;-76
2022/04/05 06:57:30;;;;;;;23.13;12.15;;;;;;;18.44;29.36;94669.13;4989732;28;20117;-76
2022/04/05 06:59:55;;;;;;;41.80;12.00;;;;;;;18.54;29.86;94666.34;4973194;28;20045;-75
2022/04/05 07:02:22;;;;;;;20.95;10.70;;;;;;;18.61;29.91;94668.66;4991464;28;20045;-77
2022/04/05 07:04:47;;;;;;;17.13;10.73;;;;;;;18.50;29.15;94668.00;4973337;28;20137;-78
2022/04/05 07:07:13;;;;;;;16.80;11.57;;;;;;;18.47;29.20;94668.56;4990417;28;20402;-76
2022/04/05 07:09:38;;;;;;;24.27;10.05;;;;;;;18.37;29.36;94666.06;4989295;28;20120;-76
2022/04/05 07:12:04;;;;;;;25.73;10.35;;;;;;;18.28;29.25;94662.50;4972877;28;20034;-76
2022/04/05 07:14:30;;;;;;;21.83;10.73;;;;;;;18.29;29.63;94664.06;4971689;28;20151;-75
2022/04/05 07:16:55;;;;;;;16.45;8.88;;;;;;;18.11;29.44;94670.88;4987789;28;20053;-75
2022/04/05 07:19:21;;;;;;;20.60;9.10;;;;;;;18.04;29.59;94661.75;4988349;28;20473;-75
2022/04/05 07:21:47;;;;;;;18.50;8.48;;;;;;;17.92;29.79;94662.97;4987299;28;20030;-75
2022/04/05 07:24:13;;;;;;;18.80;9.43;;;;;;;17.78;30.05;94656.03;4985371;28;20066;-76
2022/04/05 07:26:44;;;;;;;10.65;6.93;;;;;;;17.77;29.92;94657.88;4987877;28;20031;-77
2022/04/05 07:29:10;;;;;;;20.27;6.93;;;;;;;17.77;29.89;94652.59;4988376;28;20030;-77
2022/04/05 07:31:36;;;;;;;15.45;6.70;;;;;;;17.75;30.33;94667.09;5013422;28;20031;-76
2022/04/05 07:34:03;;;;;;;18.58;7.00;;;;;;;17.64;31.16;94650.63;4988468;28;20038;-77
2022/04/05 07:36:29;;;;;;;24.67;9.73;;;;;;;17.64;31.50;94667.16;4990115;28;20121;-77
2022/04/05 07:38:55;;;;;;;14.77;7.72;;;;;;;17.55;30.97;94660.16;4988773;28;20130;-77
2022/04/05 07:41:20;;;;;;;24.23;8.13;;;;;;;17.57;31.11;94664.09;4973810;28;20505;-77
2022/04/05 07:43:45;;;;;;;16.75;8.07;;;;;;;17.51;30.55;94659.16;4973950;28;20359;-77
2022/04/05 07:46:12;;;;;;;13.07;7.25;;;;;;;17.46;30.39;94651.31;4989917;28;20038;-77
2022/04/05 07:48:39;;;;;;;19.30;7.13;;;;;;;17.32;30.84;94654.59;4988922;28;20042;-77
2022/04/05 07:51:05;;;;;;;17.02;6.72;;;;;;;17.25;31.03;94659.41;4972772;28;20089;-77
2022/04/05 07:53:30;;;;;;;9.63;6.60;;;;;;;17.20;31.20;94656.81;4989800;28;20045;-77
2022/04/05 07:55:56;;;;;;;19.63;6.47;;;;;;;17.17;31.10;94651.31;4987398;28;20015;-77
2022/04/05 07:58:22;;;;;;;14.52;6.20;;;;;;;17.12;31.25;94649.53;4988406;28;20065;-77
2022/04/05 08:00:48;;;;;;;22.40;8.15;;;;;;;17.08;31.13;94659.00;5006236;28;20030;-76
2022/04/05 08:03:13;;;;;;;15.60;8.70;;;;;;;17.03;31.53;94653.81;4971380;28;20061;-76
2022/04/05 08:05:40;;;;;;;10.88;7.78;;;;;;;17.03;31.15;94659.06;4987370;28;20030;-76
2022/04/05 08:08:06;;;;;;;14.95;7.25;;;;;;;17.01;31.10;94654.09;4972280;28;20042;-76
2022/04/05 08:10:32;;;;;;;19.55;7.70;;;;;;;16.99;31.24;94644.91;4988208;28;20042;-76
2022/04/05 08:12:59;;;;;;;21.35;8.18;;;;;;;16.99;30.99;94652.78;4987729;28;20038;-76
2022/04/05 08:15:25;;;;;;;27.65;7.57;;;;;;;16.94;31.19;94653.63;4972113;28;20073;-77
2022/04/05 08:17:53;;;;;;;29.25;7.05;;;;;;;16.97;31.04;94642.56;4988749;28;20085;-75
2022/04/05 08:20:19;;;;;;;8.02;6.65;;;;;;;16.92;31.22;94649.69;5012297;28;20382;-75
2022/04/05 08:22:45;;;;;;;10.38;6.40;;;;;;;16.98;30.92;94653.84;4988222;28;20038;-77
2022/04/05 08:25:14;;;;;;;12.80;6.93;;;;;;;17.05;31.17;94638.56;4987493;28;20035;-76
2022/04/05 08:27:41;;;;;;;12.48;7.47;;;;;;;17.08;31.42;94635.38;4989717;28;20034;-77
2022/04/05 08:30:08;;;;;;;18.65;7.47;;;;;;;17.11;32.13;94637.47;4988115;28;20121;-76
2022/04/05 08:32:36;;;;;;;11.93;6.88;;;;;;;17.13;31.20;94634.56;4971963;28;20042;-76
2022/04/05 08:35:03;;;;;;;10.43;7.53;;;;;;;17.04;30.77;94626.47;4997544;28;20092;-76
2022/04/05 08:37:29;;;;;;;10.93;6.90;;;;;;;16.87;30.91;94626.09;4995972;28;20091;-84
2022/04/05 08:39:55;;;;;;;20.77;7.00;;;;;;;16.73;32.64;94621.47;4984984;28;20430;-83
2022/04/05 08:42:27;;;;;;;13.93;7.00;;;;;;;16.69;31.16;94620.47;4997696;28;20576;-83
2022/04/05 08:44:52;;;;;;;16.57;6.50;;;;;;;16.67;31.05;94617.31;4997509;28;20049;-83
2022/04/05 08:47:23;;;;;;;20.63;8.43;;;;;;;16.48;31.66;94619.00;4980349;28;20931;-83
2022/04/05 08:50:15;;;;;;;11.20;7.78;;;;;;;16.24;31.66;94613.63;4994975;28;20046;-82
2022/04/05 08:52:41;;;;;;;11.97;7.57;;;;;;;16.17;32.52;94611.31;4994891;28;20038;-82
2022/04/05 08:55:07;;;;;;;11.60;6.85;;;;;;;15.92;31.16;94606.19;4994957;28;20038;-82
2022/04/05 08:57:32;;;;;;;10.02;7.13;;;;;;;15.85;31.11;94600.47;4978761;28;20536;-83
2022/04/05 08:59:59;;;;;;;14.02;7.50;;;;;;;15.79;32.13;94597.09;4996353;28;20125;-83
2022/04/05 09:02:25;;;;;;;15.80;7.43;;;;;;;15.79;32.64;94597.09;4981231;28;20046;-83
2022/04/05 09:04:51;;;;;;;8.85;6.30;;;;;;;15.73;32.50;94592.13;4983916;28;20069;-83
2022/04/05 09:07:23;;;;;;;9.60;6.18;;;;;;;15.65;30.10;94584.84;4983979;28;20045;-83
2022/04/05 09:10:07;;;;;;;11.02;8.25;;;;;;;15.47;28.54;94594.06;4983475;28;20053;-83
2022/04/05 09:12:43;;;;;;;10.93;5.32;;;;;;;15.32;28.56;94594.88;4997533;28;20556;-83
2022/04/05 09:15:10;;;;;;;7.75;5.93;;;;;;;15.19;29.36;94587.56;4994927;28;20107;-82
2022/04/05 09:17:42;;;;;;;7.32;5.68;;;;;;;15.12;30.18;94582.59;5001914;28;20094;-82
2022/04/05 09:20:08;;;;;;;;;;;;;;;15.19;28.29;94577.88;5000949;28;20066;-82
2022/04/05 09:22:34;;;;;;;10.73;5.85;;;;;;;15.24;29.92;94580.47;5017908;28;20324;-82
2022/04/05 09:25:10;;;;;;;9.82;5.63;;;;;;;15.24;30.11;94574.44;5000570;28;20793;-83
2022/04/05 09:28:05;;;;;;;14.10;6.78;;;;;;;15.19;29.17;94577.09;4995930;28;20047;-83
2022/04/05 09:30:31;;;;;;;11.23;5.25;;;;;;;15.01;29.90;94573.97;5091027;23;20403;-82
2022/04/05 09:33:02;;;;;;;8.00;6.38;;;;;;;14.66;30.02;94568.78;5054335;23;20061;-81
2022/04/05 09:35:29;;;;;;;9.50;5.25;;;;;;;14.53;29.84;94569.31;5018203;28;20034;-80
2022/04/05 09:38:15;;;;;;;8.43;5.65;;;;;;;14.61;29.39;94571.41;4992064;28;20524;-81
2022/04/05 09:40:41;;;;;;;21.17;10.70;;;;;;;14.62;28.92;94560.66;4984016;28;20196;-83
2022/04/05 09:43:07;;;;;;;9.73;6.15;;;;;;;14.47;29.59;94565.09;4999466;28;20025;-81
2022/04/05 09:45:42;;;;;;;18.05;8.02;;;;;;;14.37;28.80;94561.44;5014804;28;20029;-83
2022/04/05 09:48:08;;;;;;;11.68;6.32;;;;;;;14.31;29.52;94561.66;5016356;28;20109;-83
2022/04/05 09:50:59;;;;;;;11.82;5.18;;;;;;;14.37;29.62;94550.97;4966215;28;20041;-83
2022/04/05 09:53:34;;;;;;;10.25;5.38;;;;;;;14.39;29.55;94543.63;5015949;28;20037;-83
2022/04/05 09:56:22;;;;;;;10.50;6.00;;;;;;;14.46;30.26;94550.47;5013626;28;20524;-83
2022/04/05 09:58:50;;;;;;;6.90;5.53;;;;;;;14.56;30.19;94542.63;4997960;28;20034;-83
2022/04/05 10:01:17;;;;;;;8.10;5.38;;;;;;;14.49;30.08;94531.66;5015518;28;20026;-83
2022/04/05 10:03:43;;;;;;;9.95;6.25;;;;;;;14.59;31.39;94542.09;4998179;28;20048;-83
2022/04/05 10:06:09;;;;;;;9.15;5.78;;;;;;;14.67;29.80;94523.25;4997919;28;20044;-83
2022/04/05 10:08:37;;;;;;;11.88;6.53;;;;;;;14.73;29.97;94531.88;5013950;28;20257;-83
2022/04/05 10:11:02;;;;;;;13.52;7.13;;;;;;;14.78;30.51;94527.41;4981851;28;20124;-82
2022/04/05 10:13:28;;;;;;;9.70;6.25;;;;;;;14.84;31.45;94523.75;4997429;28;20044;-81
2022/04/05 10:15:54;;;;;;;8.65;5.55;;;;;;;14.89;31.49;94528.97;4998956;28;20032;-80
2022/04/05 10:18:20;;;;;;;10.25;6.55;;;;;;;14.85;30.40;94519.28;5022656;28;20087;-81
2022/04/05 10:20:47;;;;;;;9.15;6.22;;;;;;;14.89;32.02;94515.88;5008097;28;20038;-80
2022/04/05 10:23:13;;;;;;;10.15;6.32;;;;;;;14.94;31.47;94513.25;4985214;28;20060;-80
2022/04/05 10:25:41;;;;;;;16.23;6.85;;;;;;;15.00;31.47;94506.97;4980717;28;20034;-82
2022/04/05 10:28:09;;;;;;;6.30;5.70;;;;;;;15.07;30.60;94505.88;4980654;28;20078;-82
2022/04/05 10:30:43;;;;;;;9.27;5.90;;;;;;;15.00;30.55;94501.72;4991102;28;20422;-84
2022/04/05 10:33:13;;;;;;;6.85;5.80;;;;;;;14.88;30.56;94500.44;5001236;28;20033;-84
2022/04/05 10:35:47;;;;;;;9.77;6.13;;;;;;;14.82;30.60;94498.91;4988978;28;20091;-83
2022/04/05 10:38:38;;;;;;;10.27;7.18;;;;;;;14.84;30.83;94496.78;4980840;28;20438;-84
2022/04/05 10:41:20;;;;;;;15.02;7.25;;;;;;;14.90;30.50;94486.03;5014545;28;20046;-84
2022/04/05 10:43:47;;;;;;;10.85;7.20;;;;;;;14.94;30.58;94486.28;4989257;28;20034;-83
2022/04/05 10:46:13;;;;;;;12.82;5.88;;;;;;;14.87;30.62;94476.09;4997033;28;20107;-83
2022/04/05 10:48:54;;;;;;;19.55;6.72;;;;;;;14.91;30.69;94474.50;4981274;28;20452;-83
2022/04/05 10:51:30;;;;;;;10.80;6.70;;;;;;;14.84;30.50;94475.84;5014344;28;20084;-83
2022/04/05 10:54:18;;;;;;;21.63;8.48;;;;;;;14.78;30.99;94477.69;4998047;28;20053;-83
2022/04/05 10:57:03;;;;;;;13.82;6.10;;;;;;;14.68;30.77;94475.09;4981266;28;20486;-83
2022/04/05 10:59:45;;;;;;;14.25;6.07;;;;;;;14.73;30.81;94469.06;5012116;28;20032;-83
2022/04/05 11:02:27;;;;;;;;;;;;;;;14.53;30.76;94467.28;5013077;28;20463;-82
2022/04/05 11:04:59;;;;;;;9.60;6.47;;;;;;;14.39;31.22;94462.53;5012646;28;19913;-83
2022/04/05 11:07:25;;;;;;;;;;;;;;;14.35;30.91;94452.88;4997075;28;20387;-83
2022/04/05 11:09:54;;;;;;;11.48;6.00;;;;;;;14.27;31.29;94456.78;4996336;28;19961;-83
2022/04/05 11:12:23;;;;;;;9.38;6.40;;;;;;;14.18;31.90;94452.38;4996523;28;20053;-83
2022/04/05 11:14:58;;;;;;;14.70;6.80;;;;;;;14.16;31.80;94444.78;4979676;28;20033;-82
2022/04/05 11:17:26;;;;;;;8.70;6.47;;;;;;;14.19;31.47;94444.28;5011732;28;20042;-83
2022/04/05 11:19:53;;;;;;;11.45;6.03;;;;;;;14.23;31.12;94440.06;4980437;28;20121;-83
2022/04/05 11:22:22;;;;;;;17.42;6.13;;;;;;;14.24;32.30;94440.84;5012311;28;20049;-83
2022/04/05 11:24:55;;;;;;;10.85;6.63;;;;;;;14.27;31.65;94435.88;5012507;28;20053;-83
2022/04/05 11:27:30;;;;;;;16.77;5.80;;;;;;;14.28;32.25;94426.97;4998247;28;20056;-81